sensor_id;sensor_type;location;lat;lon;timestamp;temperature;humidity
23081;DHT22;11708;50.570;8.532;2022-11-11T00:10:16;5.50;99.90
23081;DHT22;11708;50.570;8.532;2022-11-11T00:17:37;5.50;99.90
23081;DHT22;11708;50.570;8.532;2022-11-11T00:23:19;5.50;99.90
23081;DHT22;11708;50.570;8.532;2022-11-11T00:28:30;5.40;99.90
23081;DHT22;11708;50.570;8.532;2022-11-11T00:31:07;8.60;99.90
23081;DHT22;11708;50.570;8.532;2022-11-11T00:36:00;5.10;99.90
23081;DHT22;11708;50.570;8.532;2022-11-11T00:41:17;5.40;99.90
23081;DHT22;11708;50.570;8.532;2022-11-11T00:43:46;5.20;99.90
23081;DHT22;11708;50.570;8.532;2022-11-11T00:46:13;5.40;99.90
23081;DHT22;11708;50.570;8.532;2022-11-11T00:59:03;5.30;99.90
23081;DHT22;11708;50.570;8.532;2022-11-11T01:01:30;6.60;99.90
23081;DHT22;11708;50.570;8.532;2022-11-11T01:11:15;5.50;99.90
23081;DHT22;11708;50.570;8.532;2022-11-11T01:16:11;5.50;99.90
23081;DHT22;11708;50.570;8.532;2022-11-11T01:21:05;5.40;99.90
23081;DHT22;11708;50.570;8.532;2022-11-11T01:23:36;7.20;99.90
23081;DHT22;11708;50.570;8.532;2022-11-11T01:26:12;5.50;99.90
23081;DHT22;11708;50.570;8.532;2022-11-11T01:28:38;5.50;99.90
23081;DHT22;11708;50.570;8.532;2022-11-11T01:31:07;5.50;99.90
23081;DHT22;11708;50.570;8.532;2022-11-11T01:36:13;5.60;99.90
23081;DHT22;11708;50.570;8.532;2022-11-11T01:38:40;5.60;99.90
23081;DHT22;11708;50.570;8.532;2022-11-11T01:41:09;5.60;99.90
23081;DHT22;11708;50.570;8.532;2022-11-11T01:43:54;5.50;99.90
23081;DHT22;11708;50.570;8.532;2022-11-11T01:52:27;5.70;99.90
23081;DHT22;11708;50.570;8.532;2022-11-11T01:55:09;5.80;99.90
23081;DHT22;11708;50.570;8.532;2022-11-11T02:00:16;6.60;99.90
23081;DHT22;11708;50.570;8.532;2022-11-11T02:02:55;5.90;99.90
23081;DHT22;11708;50.570;8.532;2022-11-11T02:05:23;6.00;99.90
23081;DHT22;11708;50.570;8.532;2022-11-11T02:08:26;5.90;99.90
23081;DHT22;11708;50.570;8.532;2022-11-11T02:11:14;5.90;99.90
23081;DHT22;11708;50.570;8.532;2022-11-11T02:16:45;5.90;99.90
23081;DHT22;11708;50.570;8.532;2022-11-11T02:19:12;5.90;99.90
23081;DHT22;11708;50.570;8.532;2022-11-11T02:21:44;5.90;99.90
23081;DHT22;11708;50.570;8.532;2022-11-11T02:24:18;7.00;99.90
23081;DHT22;11708;50.570;8.532;2022-11-11T02:26:46;8.70;99.90
23081;DHT22;11708;50.570;8.532;2022-11-11T02:29:17;5.90;99.90
23081;DHT22;11708;50.570;8.532;2022-11-11T02:36:37;5.90;99.90
23081;DHT22;11708;50.570;8.532;2022-11-11T02:59:09;5.90;99.90
23081;DHT22;11708;50.570;8.532;2022-11-11T03:01:35;5.90;99.90
23081;DHT22;11708;50.570;8.532;2022-11-11T03:08:53;5.80;99.90
23081;DHT22;11708;50.570;8.532;2022-11-11T03:13:58;5.80;99.90
23081;DHT22;11708;50.570;8.532;2022-11-11T03:16:27;6.80;99.90
23081;DHT22;11708;50.570;8.532;2022-11-11T03:33:47;5.80;99.90
23081;DHT22;11708;50.570;8.532;2022-11-11T03:36:13;8.60;99.90
23081;DHT22;11708;50.570;8.532;2022-11-11T03:43:32;5.70;99.90
23081;DHT22;11708;50.570;8.532;2022-11-11T03:46:00;5.70;99.90
23081;DHT22;11708;50.570;8.532;2022-11-11T03:48:28;5.70;99.90
23081;DHT22;11708;50.570;8.532;2022-11-11T03:53:21;5.60;99.90
23081;DHT22;11708;50.570;8.532;2022-11-11T04:03:16;5.50;99.90
23081;DHT22;11708;50.570;8.532;2022-11-11T04:08:45;5.50;99.90
23081;DHT22;11708;50.570;8.532;2022-11-11T04:14:09;5.80;99.90
23081;DHT22;11708;50.570;8.532;2022-11-11T04:22:07;5.50;99.90
23081;DHT22;11708;50.570;8.532;2022-11-11T04:24:33;8.30;99.90
23081;DHT22;11708;50.570;8.532;2022-11-11T04:27:18;6.70;99.90
23081;DHT22;11708;50.570;8.532;2022-11-11T04:29:44;5.50;99.90
23081;DHT22;11708;50.570;8.532;2022-11-11T04:32:16;5.40;99.90
23081;DHT22;11708;50.570;8.532;2022-11-11T04:35:06;7.30;99.90
23081;DHT22;11708;50.570;8.532;2022-11-11T04:37:36;5.40;99.90
23081;DHT22;11708;50.570;8.532;2022-11-11T04:40:08;7.70;99.90
23081;DHT22;11708;50.570;8.532;2022-11-11T04:42:53;5.30;99.90
23081;DHT22;11708;50.570;8.532;2022-11-11T04:45:19;5.30;99.90
23081;DHT22;11708;50.570;8.532;2022-11-11T04:50:32;5.30;99.90
23081;DHT22;11708;50.570;8.532;2022-11-11T04:58:09;5.30;99.90
23081;DHT22;11708;50.570;8.532;2022-11-11T05:05:53;5.30;99.90
23081;DHT22;11708;50.570;8.532;2022-11-11T05:08:39;5.40;99.90
23081;DHT22;11708;50.570;8.532;2022-11-11T05:11:26;5.30;99.90
23081;DHT22;11708;50.570;8.532;2022-11-11T05:13:55;5.20;99.90
23081;DHT22;11708;50.570;8.532;2022-11-11T05:16:46;5.20;99.90
23081;DHT22;11708;50.570;8.532;2022-11-11T05:19:32;5.30;99.90
23081;DHT22;11708;50.570;8.532;2022-11-11T05:22:27;5.20;99.90
23081;DHT22;11708;50.570;8.532;2022-11-11T05:30:06;5.40;99.90
23081;DHT22;11708;50.570;8.532;2022-11-11T05:32:33;5.10;99.90
23081;DHT22;11708;50.570;8.532;2022-11-11T05:42:17;5.10;99.90
23081;DHT22;11708;50.570;8.532;2022-11-11T05:49:41;5.00;99.90
23081;DHT22;11708;50.570;8.532;2022-11-11T05:52:09;5.10;99.90
23081;DHT22;11708;50.570;8.532;2022-11-11T05:57:18;5.20;99.90
23081;DHT22;11708;50.570;8.532;2022-11-11T06:13:18;5.30;99.90
23081;DHT22;11708;50.570;8.532;2022-11-11T06:23:03;5.30;99.90
23081;DHT22;11708;50.570;8.532;2022-11-11T06:25:32;5.30;99.90
23081;DHT22;11708;50.570;8.532;2022-11-11T06:28:17;5.30;99.90
23081;DHT22;11708;50.570;8.532;2022-11-11T06:30:44;5.40;99.90
23081;DHT22;11708;50.570;8.532;2022-11-11T06:33:10;5.30;99.90
23081;DHT22;11708;50.570;8.532;2022-11-11T06:35:38;5.30;99.90
23081;DHT22;11708;50.570;8.532;2022-11-11T06:38:05;5.10;99.90
23081;DHT22;11708;50.570;8.532;2022-11-11T06:42:59;5.30;99.90
23081;DHT22;11708;50.570;8.532;2022-11-11T06:45:26;7.10;99.90
23081;DHT22;11708;50.570;8.532;2022-11-11T06:53:08;5.40;99.90
23081;DHT22;11708;50.570;8.532;2022-11-11T07:00:38;5.50;99.90
23081;DHT22;11708;50.570;8.532;2022-11-11T07:03:10;5.50;99.90
23081;DHT22;11708;50.570;8.532;2022-11-11T07:08:17;5.60;99.90
23081;DHT22;11708;50.570;8.532;2022-11-11T07:10:47;5.60;99.90
23081;DHT22;11708;50.570;8.532;2022-11-11T07:13:14;8.10;99.90
23081;DHT22;11708;50.570;8.532;2022-11-11T07:15:42;5.70;99.90
23081;DHT22;11708;50.570;8.532;2022-11-11T07:25:26;5.90;99.90
23081;DHT22;11708;50.570;8.532;2022-11-11T07:27:53;5.90;99.90
23081;DHT22;11708;50.570;8.532;2022-11-11T07:30:23;5.90;99.90
23081;DHT22;11708;50.570;8.532;2022-11-11T07:32:51;5.90;99.90
23081;DHT22;11708;50.570;8.532;2022-11-11T07:35:18;7.00;99.90
23081;DHT22;11708;50.570;8.532;2022-11-11T07:37:44;5.90;99.90
23081;DHT22;11708;50.570;8.532;2022-11-11T07:40:12;5.90;99.90
23081;DHT22;11708;50.570;8.532;2022-11-11T07:42:40;5.70;99.90
23081;DHT22;11708;50.570;8.532;2022-11-11T07:45:10;5.80;99.90
23081;DHT22;11708;50.570;8.532;2022-11-11T07:47:44;5.90;99.90
23081;DHT22;11708;50.570;8.532;2022-11-11T07:50:10;5.90;99.90
23081;DHT22;11708;50.570;8.532;2022-11-11T07:52:38;5.90;99.90
23081;DHT22;11708;50.570;8.532;2022-11-11T07:55:07;5.90;99.90
23081;DHT22;11708;50.570;8.532;2022-11-11T07:57:33;5.90;99.90
23081;DHT22;11708;50.570;8.532;2022-11-11T08:00:00;6.00;99.90
23081;DHT22;11708;50.570;8.532;2022-11-11T08:07:22;6.00;99.90
23081;DHT22;11708;50.570;8.532;2022-11-11T08:09:49;6.10;99.90
23081;DHT22;11708;50.570;8.532;2022-11-11T08:12:20;6.10;99.90
23081;DHT22;11708;50.570;8.532;2022-11-11T08:15:06;7.90;99.90
23081;DHT22;11708;50.570;8.532;2022-11-11T08:17:38;6.10;99.90
23081;DHT22;11708;50.570;8.532;2022-11-11T08:20:05;6.10;99.90
23081;DHT22;11708;50.570;8.532;2022-11-11T08:22:41;6.10;99.90
23081;DHT22;11708;50.570;8.532;2022-11-11T08:25:13;6.10;99.90
23081;DHT22;11708;50.570;8.532;2022-11-11T08:27:39;6.20;99.90
23081;DHT22;11708;50.570;8.532;2022-11-11T08:30:06;6.20;99.90
23081;DHT22;11708;50.570;8.532;2022-11-11T08:32:35;6.30;99.90
23081;DHT22;11708;50.570;8.532;2022-11-11T08:35:00;6.30;99.90
23081;DHT22;11708;50.570;8.532;2022-11-11T08:37:27;6.30;99.90
23081;DHT22;11708;50.570;8.532;2022-11-11T08:39:54;6.40;99.90
23081;DHT22;11708;50.570;8.532;2022-11-11T08:44:46;6.40;99.90
23081;DHT22;11708;50.570;8.532;2022-11-11T08:47:11;6.40;99.90
23081;DHT22;11708;50.570;8.532;2022-11-11T08:49:42;6.50;99.90
23081;DHT22;11708;50.570;8.532;2022-11-11T08:52:08;6.50;99.90
23081;DHT22;11708;50.570;8.532;2022-11-11T08:54:36;6.50;99.90
23081;DHT22;11708;50.570;8.532;2022-11-11T08:57:02;6.40;99.90
23081;DHT22;11708;50.570;8.532;2022-11-11T08:59:27;6.50;99.90
23081;DHT22;11708;50.570;8.532;2022-11-11T09:01:56;6.50;99.90
23081;DHT22;11708;50.570;8.532;2022-11-11T09:09:17;6.50;99.90
23081;DHT22;11708;50.570;8.532;2022-11-11T09:11:42;6.50;99.90
23081;DHT22;11708;50.570;8.532;2022-11-11T09:16:35;6.60;99.90
23081;DHT22;11708;50.570;8.532;2022-11-11T09:19:03;6.50;99.90
23081;DHT22;11708;50.570;8.532;2022-11-11T09:23:55;6.60;99.90
23081;DHT22;11708;50.570;8.532;2022-11-11T09:26:21;6.70;99.90
23081;DHT22;11708;50.570;8.532;2022-11-11T09:31:13;6.80;99.90
23081;DHT22;11708;50.570;8.532;2022-11-11T09:33:39;6.90;99.90
23081;DHT22;11708;50.570;8.532;2022-11-11T09:36:04;7.30;99.90
23081;DHT22;11708;50.570;8.532;2022-11-11T09:38:30;7.00;99.90
23081;DHT22;11708;50.570;8.532;2022-11-11T09:43:59;7.00;99.90
23081;DHT22;11708;50.570;8.532;2022-11-11T09:52:22;7.20;99.90
23081;DHT22;11708;50.570;8.532;2022-11-11T10:00:00;7.30;99.90
23081;DHT22;11708;50.570;8.532;2022-11-11T10:02:45;7.40;99.90
23081;DHT22;11708;50.570;8.532;2022-11-11T10:05:36;7.40;99.90
23081;DHT22;11708;50.570;8.532;2022-11-11T10:08:14;7.50;99.90
23081;DHT22;11708;50.570;8.532;2022-11-11T10:10:47;7.50;99.90
23081;DHT22;11708;50.570;8.532;2022-11-11T10:13:29;7.60;99.90
23081;DHT22;11708;50.570;8.532;2022-11-11T10:21:14;7.70;99.90
23081;DHT22;11708;50.570;8.532;2022-11-11T10:23:45;7.80;99.90
23081;DHT22;11708;50.570;8.532;2022-11-11T10:26:19;7.80;99.90
23081;DHT22;11708;50.570;8.532;2022-11-11T10:28:49;7.80;99.90
23081;DHT22;11708;50.570;8.532;2022-11-11T10:31:18;7.90;99.90
23081;DHT22;11708;50.570;8.532;2022-11-11T10:33:47;7.90;99.90
23081;DHT22;11708;50.570;8.532;2022-11-11T10:36:18;8.00;99.90
23081;DHT22;11708;50.570;8.532;2022-11-11T10:38:54;8.00;99.90
23081;DHT22;11708;50.570;8.532;2022-11-11T10:41:37;7.90;99.90
23081;DHT22;11708;50.570;8.532;2022-11-11T10:44:26;8.00;99.90
23081;DHT22;11708;50.570;8.532;2022-11-11T10:47:02;8.10;99.90
23081;DHT22;11708;50.570;8.532;2022-11-11T10:49:36;8.10;99.90
23081;DHT22;11708;50.570;8.532;2022-11-11T10:52:17;8.10;99.90
23081;DHT22;11708;50.570;8.532;2022-11-11T11:00:13;11.00;99.90
23081;DHT22;11708;50.570;8.532;2022-11-11T11:02:58;8.20;99.90
23081;DHT22;11708;50.570;8.532;2022-11-11T11:05:37;8.50;99.90
23081;DHT22;11708;50.570;8.532;2022-11-11T11:08:22;8.50;99.90
23081;DHT22;11708;50.570;8.532;2022-11-11T11:11:00;8.60;99.90
23081;DHT22;11708;50.570;8.532;2022-11-11T11:13:42;8.60;99.90
23081;DHT22;11708;50.570;8.532;2022-11-11T11:21:06;8.60;99.90
23081;DHT22;11708;50.570;8.532;2022-11-11T11:23:42;8.50;99.90
23081;DHT22;11708;50.570;8.532;2022-11-11T11:26:10;8.50;99.90
23081;DHT22;11708;50.570;8.532;2022-11-11T11:28:52;8.50;99.90
23081;DHT22;11708;50.570;8.532;2022-11-11T11:31:36;8.50;99.90
23081;DHT22;11708;50.570;8.532;2022-11-11T11:34:02;8.20;99.90
23081;DHT22;11708;50.570;8.532;2022-11-11T11:36:28;8.50;99.90
23081;DHT22;11708;50.570;8.532;2022-11-11T11:38:59;8.80;99.90
23081;DHT22;11708;50.570;8.532;2022-11-11T11:41:40;8.50;99.90
23081;DHT22;11708;50.570;8.532;2022-11-11T11:44:30;8.50;99.90
23081;DHT22;11708;50.570;8.532;2022-11-11T11:47:14;8.50;99.90
23081;DHT22;11708;50.570;8.532;2022-11-11T11:52:50;8.50;99.90
23081;DHT22;11708;50.570;8.532;2022-11-11T11:55:30;8.60;99.90
23081;DHT22;11708;50.570;8.532;2022-11-11T11:58:20;8.60;99.90
23081;DHT22;11708;50.570;8.532;2022-11-11T12:03:48;8.70;99.90
23081;DHT22;11708;50.570;8.532;2022-11-11T12:14:52;8.80;99.90
23081;DHT22;11708;50.570;8.532;2022-11-11T12:17:35;8.80;99.90
23081;DHT22;11708;50.570;8.532;2022-11-11T12:20:26;8.80;99.90
23081;DHT22;11708;50.570;8.532;2022-11-11T12:31:16;9.00;99.90
23081;DHT22;11708;50.570;8.532;2022-11-11T12:36:34;9.30;99.90
23081;DHT22;11708;50.570;8.532;2022-11-11T12:44:29;9.10;99.90
23081;DHT22;11708;50.570;8.532;2022-11-11T12:52:57;9.10;99.90
23081;DHT22;11708;50.570;8.532;2022-11-11T12:55:56;9.10;99.90
23081;DHT22;11708;50.570;8.532;2022-11-11T13:13:50;9.20;99.90
23081;DHT22;11708;50.570;8.532;2022-11-11T13:16:23;9.40;99.90
23081;DHT22;11708;50.570;8.532;2022-11-11T13:22:25;9.30;99.90
23081;DHT22;11708;50.570;8.532;2022-11-11T13:25:04;9.30;99.90
23081;DHT22;11708;50.570;8.532;2022-11-11T13:27:59;9.30;99.90
23081;DHT22;11708;50.570;8.532;2022-11-11T13:30:43;9.30;99.90
23081;DHT22;11708;50.570;8.532;2022-11-11T13:33:18;9.30;99.90
23081;DHT22;11708;50.570;8.532;2022-11-11T13:35:57;9.20;99.90
23081;DHT22;11708;50.570;8.532;2022-11-11T13:38:53;9.30;99.90
23081;DHT22;11708;50.570;8.532;2022-11-11T13:41:37;9.20;99.90
23081;DHT22;11708;50.570;8.532;2022-11-11T13:44:06;9.30;99.90
23081;DHT22;11708;50.570;8.532;2022-11-11T13:46:40;9.30;99.90
23081;DHT22;11708;50.570;8.532;2022-11-11T13:49:19;9.30;99.90
23081;DHT22;11708;50.570;8.532;2022-11-11T13:51:59;9.20;99.90
23081;DHT22;11708;50.570;8.532;2022-11-11T13:54:33;9.20;99.90
23081;DHT22;11708;50.570;8.532;2022-11-11T14:07:49;9.10;99.90
23081;DHT22;11708;50.570;8.532;2022-11-11T14:12:56;9.10;99.90
23081;DHT22;11708;50.570;8.532;2022-11-11T14:15:46;9.10;99.90
23081;DHT22;11708;50.570;8.532;2022-11-11T14:20:47;8.90;99.90
23081;DHT22;11708;50.570;8.532;2022-11-11T14:23:37;8.90;99.90
23081;DHT22;11708;50.570;8.532;2022-11-11T14:39:50;8.80;99.90
23081;DHT22;11708;50.570;8.532;2022-11-11T14:47:57;8.80;99.90
23081;DHT22;11708;50.570;8.532;2022-11-11T14:53:17;8.80;99.90
23081;DHT22;11708;50.570;8.532;2022-11-11T14:55:50;8.70;99.90
23081;DHT22;11708;50.570;8.532;2022-11-11T14:58:23;8.70;99.90
23081;DHT22;11708;50.570;8.532;2022-11-11T15:01:12;8.80;99.90
23081;DHT22;11708;50.570;8.532;2022-11-11T15:03:42;8.70;99.90
23081;DHT22;11708;50.570;8.532;2022-11-11T15:06:16;8.80;99.90
23081;DHT22;11708;50.570;8.532;2022-11-11T15:14:33;8.60;99.90
23081;DHT22;11708;50.570;8.532;2022-11-11T15:17:55;8.60;99.90
23081;DHT22;11708;50.570;8.532;2022-11-11T15:20:58;8.60;99.90
23081;DHT22;11708;50.570;8.532;2022-11-11T15:23:43;8.70;99.90
23081;DHT22;11708;50.570;8.532;2022-11-11T15:31:43;8.60;99.90
23081;DHT22;11708;50.570;8.532;2022-11-11T15:34:31;8.60;99.90
23081;DHT22;11708;50.570;8.532;2022-11-11T15:37:02;8.60;99.90
23081;DHT22;11708;50.570;8.532;2022-11-11T15:39:51;8.60;99.90
23081;DHT22;11708;50.570;8.532;2022-11-11T15:42:37;8.60;99.90
23081;DHT22;11708;50.570;8.532;2022-11-11T15:45:20;8.60;99.90
23081;DHT22;11708;50.570;8.532;2022-11-11T15:47:54;8.50;99.90
23081;DHT22;11708;50.570;8.532;2022-11-11T15:50:32;8.50;99.90
23081;DHT22;11708;50.570;8.532;2022-11-11T15:53:01;8.50;99.90
23081;DHT22;11708;50.570;8.532;2022-11-11T15:55:31;8.50;99.90
23081;DHT22;11708;50.570;8.532;2022-11-11T15:58:16;9.90;99.90
23081;DHT22;11708;50.570;8.532;2022-11-11T16:00:44;8.30;99.90
23081;DHT22;11708;50.570;8.532;2022-11-11T16:03:17;8.30;99.90
23081;DHT22;11708;50.570;8.532;2022-11-11T16:05:44;8.30;99.90
23081;DHT22;11708;50.570;8.532;2022-11-11T16:08:16;8.30;99.90
23081;DHT22;11708;50.570;8.532;2022-11-11T16:10:52;8.10;99.90
23081;DHT22;11708;50.570;8.532;2022-11-11T16:13:24;8.30;99.90
23081;DHT22;11708;50.570;8.532;2022-11-11T16:18:26;9.10;99.90
23081;DHT22;11708;50.570;8.532;2022-11-11T16:23:32;8.20;99.90
23081;DHT22;11708;50.570;8.532;2022-11-11T16:26:00;8.20;99.90
23081;DHT22;11708;50.570;8.532;2022-11-11T16:28:36;8.20;99.90
23081;DHT22;11708;50.570;8.532;2022-11-11T16:37:08;8.10;99.90
23081;DHT22;11708;50.570;8.532;2022-11-11T16:39:36;8.10;99.90
23081;DHT22;11708;50.570;8.532;2022-11-11T16:42:34;8.20;99.90
23081;DHT22;11708;50.570;8.532;2022-11-11T16:45:04;8.20;99.90
23081;DHT22;11708;50.570;8.532;2022-11-11T16:47:42;8.10;99.90
23081;DHT22;11708;50.570;8.532;2022-11-11T16:50:27;8.10;99.90
23081;DHT22;11708;50.570;8.532;2022-11-11T16:52:56;8.10;99.90
23081;DHT22;11708;50.570;8.532;2022-11-11T16:55:31;8.10;99.90
23081;DHT22;11708;50.570;8.532;2022-11-11T16:58:22;8.10;99.90
23081;DHT22;11708;50.570;8.532;2022-11-11T17:00:47;8.10;99.90
23081;DHT22;11708;50.570;8.532;2022-11-11T17:06:02;8.10;99.90
23081;DHT22;11708;50.570;8.532;2022-11-11T17:08:40;8.20;99.90
23081;DHT22;11708;50.570;8.532;2022-11-11T17:11:27;8.10;99.90
23081;DHT22;11708;50.570;8.532;2022-11-11T17:13:53;8.10;99.90
23081;DHT22;11708;50.570;8.532;2022-11-11T17:16:18;8.10;99.90
23081;DHT22;11708;50.570;8.532;2022-11-11T17:21:11;8.00;99.90
23081;DHT22;11708;50.570;8.532;2022-11-11T17:28:36;8.00;99.90
23081;DHT22;11708;50.570;8.532;2022-11-11T17:31:08;9.60;99.90
23081;DHT22;11708;50.570;8.532;2022-11-11T17:50:38;7.60;99.90
23081;DHT22;11708;50.570;8.532;2022-11-11T17:53:05;7.90;99.90
23081;DHT22;11708;50.570;8.532;2022-11-11T17:57:59;7.90;99.90
23081;DHT22;11708;50.570;8.532;2022-11-11T18:00:28;7.90;99.90
23081;DHT22;11708;50.570;8.532;2022-11-11T18:10:12;7.80;99.90
23081;DHT22;11708;50.570;8.532;2022-11-11T18:15:06;7.90;99.90
23081;DHT22;11708;50.570;8.532;2022-11-11T18:19:58;7.90;99.90
23081;DHT22;11708;50.570;8.532;2022-11-11T18:22:27;7.80;99.90
23081;DHT22;11708;50.570;8.532;2022-11-11T18:27:19;7.80;99.90
23081;DHT22;11708;50.570;8.532;2022-11-11T18:37:04;7.80;99.90
23081;DHT22;11708;50.570;8.532;2022-11-11T18:41:57;7.80;99.90
23081;DHT22;11708;50.570;8.532;2022-11-11T18:49:15;7.70;99.90
23081;DHT22;11708;50.570;8.532;2022-11-11T18:56:41;7.70;99.90
23081;DHT22;11708;50.570;8.532;2022-11-11T19:01:37;7.70;99.90
23081;DHT22;11708;50.570;8.532;2022-11-11T19:04:06;7.70;99.90
23081;DHT22;11708;50.570;8.532;2022-11-11T19:06:35;7.70;99.90
23081;DHT22;11708;50.570;8.532;2022-11-11T19:09:07;7.70;99.90
23081;DHT22;11708;50.570;8.532;2022-11-11T19:11:38;7.70;99.90
23081;DHT22;11708;50.570;8.532;2022-11-11T19:14:05;7.80;99.90
23081;DHT22;11708;50.570;8.532;2022-11-11T19:19:04;7.60;99.90
23081;DHT22;11708;50.570;8.532;2022-11-11T19:21:32;7.60;99.90
23081;DHT22;11708;50.570;8.532;2022-11-11T19:26:28;7.60;99.90
23081;DHT22;11708;50.570;8.532;2022-11-11T19:28:57;7.60;99.90
23081;DHT22;11708;50.570;8.532;2022-11-11T19:31:25;7.60;99.90
23081;DHT22;11708;50.570;8.532;2022-11-11T19:33:52;9.10;99.90
23081;DHT22;11708;50.570;8.532;2022-11-11T19:36:21;7.60;99.90
23081;DHT22;11708;50.570;8.532;2022-11-11T19:38:49;7.50;99.90
23081;DHT22;11708;50.570;8.532;2022-11-11T19:41:23;7.60;99.90
23081;DHT22;11708;50.570;8.532;2022-11-11T19:43:50;7.90;99.90
23081;DHT22;11708;50.570;8.532;2022-11-11T19:46:21;7.50;99.90
23081;DHT22;11708;50.570;8.532;2022-11-11T19:51:20;7.50;99.90
23081;DHT22;11708;50.570;8.532;2022-11-11T19:53:46;7.40;99.90
23081;DHT22;11708;50.570;8.532;2022-11-11T19:56:15;7.50;99.90
23081;DHT22;11708;50.570;8.532;2022-11-11T19:58:43;11.20;99.90
23081;DHT22;11708;50.570;8.532;2022-11-11T20:03:45;7.30;99.90
23081;DHT22;11708;50.570;8.532;2022-11-11T20:06:26;7.30;99.90
23081;DHT22;11708;50.570;8.532;2022-11-11T20:08:55;7.30;99.90
23081;DHT22;11708;50.570;8.532;2022-11-11T20:13:48;7.30;99.90
23081;DHT22;11708;50.570;8.532;2022-11-11T20:16:15;7.30;99.90
23081;DHT22;11708;50.570;8.532;2022-11-11T20:18:41;7.40;99.90
23081;DHT22;11708;50.570;8.532;2022-11-11T20:21:15;7.40;99.90
23081;DHT22;11708;50.570;8.532;2022-11-11T20:23:41;7.30;99.90
23081;DHT22;11708;50.570;8.532;2022-11-11T20:26:12;7.40;99.90
23081;DHT22;11708;50.570;8.532;2022-11-11T20:28:40;7.40;99.90
23081;DHT22;11708;50.570;8.532;2022-11-11T20:31:10;7.40;99.90
23081;DHT22;11708;50.570;8.532;2022-11-11T20:33:36;7.40;99.90
23081;DHT22;11708;50.570;8.532;2022-11-11T20:36:04;7.30;99.90
23081;DHT22;11708;50.570;8.532;2022-11-11T20:41:00;7.40;99.90
23081;DHT22;11708;50.570;8.532;2022-11-11T20:43:30;7.30;99.90
23081;DHT22;11708;50.570;8.532;2022-11-11T20:46:09;8.10;99.90
23081;DHT22;11708;50.570;8.532;2022-11-11T20:48:35;7.30;99.90
23081;DHT22;11708;50.570;8.532;2022-11-11T20:53:27;7.30;99.90
23081;DHT22;11708;50.570;8.532;2022-11-11T20:55:57;8.10;99.90
23081;DHT22;11708;50.570;8.532;2022-11-11T20:58:23;7.20;99.90
23081;DHT22;11708;50.570;8.532;2022-11-11T21:00:50;7.40;99.90
23081;DHT22;11708;50.570;8.532;2022-11-11T21:05:45;7.40;99.90
23081;DHT22;11708;50.570;8.532;2022-11-11T21:10:36;7.40;99.90
23081;DHT22;11708;50.570;8.532;2022-11-11T21:17:54;7.40;99.90
23081;DHT22;11708;50.570;8.532;2022-11-11T21:20:19;8.10;99.90
23081;DHT22;11708;50.570;8.532;2022-11-11T21:27:37;7.30;99.90
23081;DHT22;11708;50.570;8.532;2022-11-11T21:37:21;7.30;99.90
23081;DHT22;11708;50.570;8.532;2022-11-11T21:49:31;7.30;99.90
23081;DHT22;11708;50.570;8.532;2022-11-11T21:56:49;7.10;99.90
23081;DHT22;11708;50.570;8.532;2022-11-11T22:01:45;7.10;99.90
23081;DHT22;11708;50.570;8.532;2022-11-11T22:04:14;7.10;99.90
23081;DHT22;11708;50.570;8.532;2022-11-11T22:06:47;7.10;99.90
23081;DHT22;11708;50.570;8.532;2022-11-11T22:09:13;7.20;99.90
23081;DHT22;11708;50.570;8.532;2022-11-11T22:11:44;7.20;99.90
23081;DHT22;11708;50.570;8.532;2022-11-11T22:19:14;7.20;99.90
23081;DHT22;11708;50.570;8.532;2022-11-11T22:21:41;7.20;99.90
23081;DHT22;11708;50.570;8.532;2022-11-11T22:24:08;7.20;99.90
23081;DHT22;11708;50.570;8.532;2022-11-11T22:26:36;7.20;99.90
23081;DHT22;11708;50.570;8.532;2022-11-11T22:29:04;7.20;99.90
23081;DHT22;11708;50.570;8.532;2022-11-11T22:31:30;7.10;99.90
23081;DHT22;11708;50.570;8.532;2022-11-11T22:34:09;7.20;99.90
23081;DHT22;11708;50.570;8.532;2022-11-11T22:36:37;7.20;99.90
23081;DHT22;11708;50.570;8.532;2022-11-11T22:39:05;7.20;99.90
23081;DHT22;11708;50.570;8.532;2022-11-11T22:41:33;7.10;99.90
23081;DHT22;11708;50.570;8.532;2022-11-11T22:46:27;7.20;99.90
23081;DHT22;11708;50.570;8.532;2022-11-11T22:49:02;7.20;99.90
23081;DHT22;11708;50.570;8.532;2022-11-11T22:51:30;7.20;99.90
23081;DHT22;11708;50.570;8.532;2022-11-11T22:53:58;7.20;99.90
23081;DHT22;11708;50.570;8.532;2022-11-11T23:01:28;7.30;99.90
23081;DHT22;11708;50.570;8.532;2022-11-11T23:03:55;7.30;99.90
23081;DHT22;11708;50.570;8.532;2022-11-11T23:06:23;7.20;99.90
23081;DHT22;11708;50.570;8.532;2022-11-11T23:08:50;7.30;99.90
23081;DHT22;11708;50.570;8.532;2022-11-11T23:13:44;7.20;99.90
23081;DHT22;11708;50.570;8.532;2022-11-11T23:16:11;7.20;99.90
23081;DHT22;11708;50.570;8.532;2022-11-11T23:18:37;7.50;99.90
23081;DHT22;11708;50.570;8.532;2022-11-11T23:21:09;8.10;99.90
23081;DHT22;11708;50.570;8.532;2022-11-11T23:26:03;6.90;99.90
23081;DHT22;11708;50.570;8.532;2022-11-11T23:28:30;7.00;99.90
23081;DHT22;11708;50.570;8.532;2022-11-11T23:31:07;7.00;99.90
23081;DHT22;11708;50.570;8.532;2022-11-11T23:33:34;6.90;99.90
23081;DHT22;11708;50.570;8.532;2022-11-11T23:36:02;7.00;99.90
23081;DHT22;11708;50.570;8.532;2022-11-11T23:38:28;7.00;99.90
23081;DHT22;11708;50.570;8.532;2022-11-11T23:40:53;6.90;99.90
23081;DHT22;11708;50.570;8.532;2022-11-11T23:43:19;6.90;99.90
23081;DHT22;11708;50.570;8.532;2022-11-11T23:45:45;7.20;99.90
23081;DHT22;11708;50.570;8.532;2022-11-11T23:48:10;6.90;99.90
23081;DHT22;11708;50.570;8.532;2022-11-11T23:50:36;6.90;99.90
23081;DHT22;11708;50.570;8.532;2022-11-11T23:53:04;6.90;99.90
23081;DHT22;11708;50.570;8.532;2022-11-11T23:55:30;6.90;99.90
23081;DHT22;11708;50.570;8.532;2022-11-11T23:57:55;6.80;99.90
